createdAt,value
2019-03-13T00:00:42.469Z,2.60
2019-03-13T00:03:12.223Z,3.33
2019-03-13T00:05:41.464Z,2.67
2019-03-13T00:08:10.927Z,3.17
2019-03-13T00:10:40.599Z,3.37
2019-03-13T00:13:09.833Z,3.57
2019-03-13T00:15:39.175Z,3.83
2019-03-13T00:18:08.692Z,3.50
2019-03-13T00:20:37.941Z,4.37
2019-03-13T00:23:07.251Z,3.07
2019-03-13T00:25:36.489Z,3.70
2019-03-13T00:28:05.647Z,2.97
2019-03-13T00:30:34.895Z,4.20
2019-03-13T00:33:04.411Z,3.63
2019-03-13T00:35:33.709Z,3.80
2019-03-13T00:38:02.888Z,3.70
2019-03-13T00:40:32.233Z,2.67
2019-03-13T00:43:01.702Z,3.80
2019-03-13T00:45:30.943Z,3.83
2019-03-13T00:48:00.081Z,3.07
2019-03-13T00:50:30.804Z,3.63
2019-03-13T00:53:00.392Z,3.70
2019-03-13T00:55:29.561Z,3.20
2019-03-13T00:57:59.144Z,3.67
2019-03-13T01:00:47.343Z,3.20
2019-03-13T01:03:35.526Z,3.03
2019-03-13T01:06:06.704Z,3.83
2019-03-13T01:08:35.845Z,4.47
2019-03-13T01:11:05.472Z,3.77
2019-03-13T01:13:34.630Z,3.30
2019-03-13T01:16:04.171Z,3.60
2019-03-13T01:18:33.311Z,3.73
2019-03-13T01:21:02.596Z,3.70
2019-03-13T01:23:31.755Z,4.67
2019-03-13T01:26:01.253Z,4.13
2019-03-13T01:28:30.437Z,3.33
2019-03-13T01:31:23.528Z,4.27
2019-03-13T01:33:54.317Z,3.40
2019-03-13T01:36:23.506Z,3.50
2019-03-13T01:38:52.680Z,3.40
2019-03-13T01:41:22.328Z,3.87
2019-03-13T01:43:51.606Z,4.00
2019-03-13T01:46:20.826Z,3.73
2019-03-13T01:48:50.431Z,4.17
2019-03-13T01:51:19.564Z,4.80
2019-03-13T01:53:48.778Z,3.63
2019-03-13T01:56:18.873Z,4.07
2019-03-13T01:58:48.054Z,4.80
2019-03-13T02:01:17.288Z,4.23
2019-03-13T02:03:46.840Z,4.10
2019-03-13T02:06:16.096Z,5.47
2019-03-13T02:08:45.282Z,4.80
2019-03-13T02:11:14.417Z,3.70
2019-03-13T02:13:43.858Z,4.60
2019-03-13T02:16:13.004Z,4.47
2019-03-13T02:18:42.753Z,4.50
2019-03-13T02:21:11.983Z,4.63
2019-03-13T02:23:41.466Z,5.13
2019-03-13T02:26:10.978Z,4.83
2019-03-13T02:28:40.156Z,4.73
2019-03-13T02:31:09.735Z,4.70
2019-03-13T02:33:38.899Z,4.17
2019-03-13T02:36:08.383Z,4.57
2019-03-13T02:38:37.687Z,3.57
2019-03-13T02:41:07.398Z,4.40
2019-03-13T02:43:36.866Z,6.43
2019-03-13T02:46:06.435Z,4.50
2019-03-13T02:48:35.748Z,5.00
2019-03-13T02:51:04.889Z,6.10
2019-03-13T02:53:34.127Z,4.20
2019-03-13T02:56:03.345Z,5.13
2019-03-13T02:58:32.891Z,4.50
2019-03-13T03:01:20.034Z,4.77
2019-03-13T03:03:52.183Z,4.33
2019-03-13T03:06:21.322Z,4.57
2019-03-13T03:08:50.562Z,5.57
2019-03-13T03:11:19.789Z,4.03
2019-03-13T03:13:48.988Z,4.30
2019-03-13T03:16:18.168Z,4.43
2019-03-13T03:18:47.384Z,4.27
2019-03-13T03:21:16.871Z,5.13
2019-03-13T03:23:46.101Z,4.40
2019-03-13T03:26:15.276Z,5.73
2019-03-13T03:28:44.825Z,4.83
2019-03-13T03:31:14.157Z,5.93
2019-03-13T03:33:45.241Z,5.00
2019-03-13T03:36:14.481Z,4.93
2019-03-13T03:38:43.637Z,4.53
2019-03-13T03:41:13.074Z,4.90
2019-03-13T03:43:42.240Z,4.90
2019-03-13T03:46:11.779Z,5.67
2019-03-13T03:48:41.302Z,4.43
2019-03-13T03:51:10.796Z,5.33
2019-03-13T03:53:40.649Z,5.73
2019-03-13T03:56:10.099Z,5.33
2019-03-13T03:58:39.416Z,4.23
2019-03-13T04:01:08.623Z,5.03
2019-03-13T04:03:37.765Z,4.73
2019-03-13T04:06:07.080Z,5.30
2019-03-13T04:08:37.975Z,5.07
2019-03-13T04:11:07.508Z,5.13
2019-03-13T04:13:37.084Z,5.03
2019-03-13T04:16:06.310Z,4.07
2019-03-13T04:18:35.480Z,4.33
2019-03-13T04:21:04.775Z,4.67
2019-03-13T04:23:34.020Z,5.07
2019-03-13T04:26:03.456Z,4.50
2019-03-13T04:28:32.773Z,4.67
2019-03-13T04:31:02.651Z,5.23
2019-03-13T04:33:31.923Z,4.27
2019-03-13T04:36:01.086Z,4.07
2019-03-13T04:38:30.294Z,5.00
2019-03-13T04:40:59.814Z,3.87
2019-03-13T04:43:29.171Z,4.63
2019-03-13T04:45:58.316Z,4.67
2019-03-13T04:48:27.571Z,4.20
2019-03-13T04:50:56.835Z,4.27
2019-03-13T04:53:26.052Z,5.17
2019-03-13T04:55:55.303Z,4.00
2019-03-13T04:58:24.551Z,4.00
2019-03-13T05:00:53.797Z,4.50
2019-03-13T05:03:23.310Z,4.33
2019-03-13T05:05:55.549Z,4.77
2019-03-13T05:08:44.628Z,4.47
2019-03-13T05:11:04.341Z,4.83
2019-03-13T05:13:36.274Z,4.73
2019-03-13T05:16:05.451Z,4.00
2019-03-13T05:18:34.976Z,4.80
2019-03-13T05:21:04.498Z,4.13
2019-03-13T05:23:34.004Z,4.47
2019-03-13T05:26:03.237Z,4.33
2019-03-13T05:28:32.491Z,4.10
2019-03-13T05:31:01.993Z,5.20
2019-03-13T05:33:31.505Z,4.70
2019-03-13T05:36:00.654Z,4.40
2019-03-13T05:38:29.817Z,4.90
2019-03-13T05:40:59.009Z,4.77
2019-03-13T05:43:28.677Z,4.47
2019-03-13T05:45:58.261Z,4.23
2019-03-13T05:48:27.801Z,4.93
2019-03-13T05:50:57.130Z,5.03
2019-03-13T05:53:26.411Z,4.60
2019-03-13T05:55:55.581Z,4.80
2019-03-13T05:58:24.811Z,5.07
2019-03-13T06:00:54.115Z,5.47
2019-03-13T06:03:23.563Z,5.03
2019-03-13T06:05:52.894Z,5.13
2019-03-13T06:08:24.986Z,4.87
2019-03-13T06:10:54.235Z,5.00
2019-03-13T06:13:23.786Z,4.47
2019-03-13T06:15:53.098Z,5.03
2019-03-13T06:18:22.682Z,4.83
2019-03-13T06:20:51.940Z,5.00
2019-03-13T06:23:21.219Z,5.27
2019-03-13T06:25:50.553Z,4.93
2019-03-13T06:28:19.757Z,5.80
2019-03-13T06:30:48.921Z,4.73
2019-03-13T06:33:18.157Z,4.90
2019-03-13T06:35:47.785Z,3.97
2019-03-13T06:38:16.947Z,4.77
2019-03-13T06:40:46.473Z,4.63
2019-03-13T06:43:16.003Z,4.23
2019-03-13T06:45:45.391Z,4.97
2019-03-13T06:48:14.620Z,3.87
2019-03-13T06:50:43.771Z,5.07
2019-03-13T06:53:13.011Z,5.10
2019-03-13T06:55:42.255Z,6.00
2019-03-13T06:58:11.515Z,5.17
2019-03-13T07:01:00.852Z,4.47
2019-03-13T07:03:38.646Z,4.73
2019-03-13T07:06:29.857Z,4.43
2019-03-13T07:09:18.394Z,4.13
2019-03-13T07:12:09.608Z,5.30
2019-03-13T07:15:03.599Z,4.17
2019-03-13T07:17:37.723Z,5.10
2019-03-13T07:20:18.153Z,4.63
2019-03-13T07:23:01.811Z,6.33
2019-03-13T07:25:39.803Z,4.43
2019-03-13T07:28:18.535Z,5.07
2019-03-13T07:31:15.967Z,5.07
2019-03-13T07:34:13.843Z,4.37
2019-03-13T07:37:01.255Z,5.80
2019-03-13T07:39:53.051Z,5.00
2019-03-13T07:42:54.027Z,4.57
2019-03-13T07:45:40.911Z,4.37
2019-03-13T07:48:28.048Z,4.80
2019-03-13T07:51:06.395Z,4.50
2019-03-13T07:53:53.654Z,4.80
2019-03-13T07:56:40.091Z,5.00
2019-03-13T07:59:17.274Z,4.20
2019-03-13T08:02:20.585Z,4.37
2019-03-13T08:05:07.229Z,4.70
2019-03-13T08:08:01.511Z,4.00
2019-03-13T08:10:38.087Z,3.83
2019-03-13T08:13:12.354Z,4.50
2019-03-13T08:15:59.756Z,4.20
2019-03-13T08:18:48.332Z,4.43
2019-03-13T08:21:41.805Z,5.13
2019-03-13T08:24:39.430Z,4.07
2019-03-13T08:27:26.541Z,5.00
2019-03-13T08:30:13.731Z,4.40
2019-03-13T08:33:20.406Z,4.27
2019-03-13T08:36:08.566Z,5.17
2019-03-13T08:38:51.722Z,3.93
2019-03-13T08:41:48.977Z,4.10
2019-03-13T08:44:27.815Z,4.50
2019-03-13T08:47:02.928Z,3.83
2019-03-13T08:49:40.552Z,4.50
2019-03-13T08:52:41.358Z,4.83
2019-03-13T08:55:32.587Z,4.63
2019-03-13T08:58:26.898Z,4.80
2019-03-13T09:01:06.630Z,3.83
2019-03-13T09:03:43.183Z,4.67
2019-03-13T09:06:37.748Z,4.43
2019-03-13T09:09:32.698Z,4.83
2019-03-13T09:12:24.294Z,4.37
2019-03-13T09:15:07.125Z,4.30
2019-03-13T09:17:53.959Z,4.00
2019-03-13T09:20:45.541Z,4.37
2019-03-13T09:23:34.515Z,3.60
2019-03-13T09:26:19.735Z,4.00
2019-03-13T09:28:59.000Z,4.80
2019-03-13T09:31:47.554Z,4.70
2019-03-13T09:34:39.089Z,3.90
2019-03-13T09:37:26.088Z,4.37
2019-03-13T09:40:20.356Z,4.10
2019-03-13T09:42:57.964Z,5.10
2019-03-13T09:46:04.645Z,4.03
2019-03-13T09:48:48.762Z,4.53
2019-03-13T09:51:48.940Z,4.60
2019-03-13T09:54:26.614Z,5.37
2019-03-13T09:57:08.613Z,3.73
2019-03-13T09:59:47.917Z,4.50
2019-03-13T10:02:36.126Z,4.33
2019-03-13T10:05:14.924Z,3.77
2019-03-13T10:08:09.195Z,4.20
2019-03-13T10:11:03.302Z,5.13
2019-03-13T10:13:44.858Z,4.07
2019-03-13T10:16:48.235Z,4.60
2019-03-13T10:19:30.948Z,3.83
2019-03-13T10:22:15.215Z,4.10
2019-03-13T10:25:02.079Z,4.57
2019-03-13T10:27:52.411Z,6.13
2019-03-13T10:30:43.603Z,5.03
2019-03-13T10:33:41.497Z,4.77
2019-03-13T10:36:25.256Z,4.73
2019-03-13T10:39:09.293Z,3.97
2019-03-13T10:42:03.592Z,4.23
2019-03-13T10:44:57.601Z,4.57
2019-03-13T10:47:34.522Z,4.60
2019-03-13T10:50:13.546Z,4.10
2019-03-13T10:53:05.274Z,4.83
2019-03-13T10:55:55.173Z,5.07
2019-03-13T10:58:50.184Z,5.20
2019-03-13T11:01:38.467Z,4.40
2019-03-13T11:04:44.995Z,5.00
2019-03-13T11:07:35.123Z,4.77
2019-03-13T11:10:27.529Z,4.07
2019-03-13T11:13:03.869Z,4.10
2019-03-13T11:15:52.191Z,4.43
2019-03-13T11:18:34.344Z,4.30
2019-03-13T11:21:25.590Z,4.20
2019-03-13T11:24:13.787Z,3.57
2019-03-13T11:27:02.249Z,4.17
2019-03-13T11:29:53.661Z,4.50
2019-03-13T11:32:50.751Z,5.03
2019-03-13T11:35:37.835Z,4.93
2019-03-13T11:38:26.110Z,4.33
2019-03-13T11:41:20.955Z,4.17
2019-03-13T11:44:09.183Z,4.07
2019-03-13T11:46:45.859Z,3.53
2019-03-13T11:49:33.253Z,4.17
2019-03-13T11:52:20.139Z,3.60
2019-03-13T11:55:08.440Z,4.50
2019-03-13T11:57:55.523Z,4.40
2019-03-13T12:00:42.749Z,4.40
2019-03-13T12:03:30.496Z,3.93
2019-03-13T12:06:24.801Z,4.23
2019-03-13T12:09:18.762Z,4.57
2019-03-13T12:12:12.977Z,5.17
2019-03-13T12:15:01.234Z,4.57
2019-03-13T12:18:04.946Z,4.63
2019-03-13T12:20:40.421Z,4.47
2019-03-13T12:23:31.397Z,4.77
2019-03-13T12:26:25.605Z,5.17
2019-03-13T12:29:31.897Z,4.63
2019-03-13T12:32:09.919Z,5.20
2019-03-13T12:34:53.557Z,3.83
2019-03-13T12:37:49.134Z,3.90
2019-03-13T12:40:36.665Z,4.33
2019-03-13T12:43:27.918Z,3.77
2019-03-13T12:46:16.204Z,4.70
2019-03-13T12:48:54.262Z,4.83
2019-03-13T12:51:51.869Z,3.73
2019-03-13T12:54:37.876Z,3.83
2019-03-13T12:57:31.869Z,3.50
2019-03-13T13:00:14.900Z,4.47
2019-03-13T13:02:54.904Z,3.00
2019-03-13T13:05:38.656Z,3.37
2019-03-13T13:08:42.107Z,3.70
2019-03-13T13:11:42.541Z,3.33
2019-03-13T13:14:34.746Z,3.80
2019-03-13T13:17:18.673Z,3.23
2019-03-13T13:19:47.852Z,2.97
2019-03-13T13:22:17.334Z,2.90
2019-03-13T13:24:46.577Z,3.17
2019-03-13T13:27:15.811Z,3.17
2019-03-13T13:29:44.971Z,3.30
2019-03-13T13:32:15.036Z,3.63
2019-03-13T13:34:44.276Z,4.53
2019-03-13T13:37:13.506Z,3.17
2019-03-13T13:39:43.000Z,4.03
2019-03-13T13:42:12.208Z,3.57
2019-03-13T13:44:41.746Z,2.93
2019-03-13T13:47:11.581Z,3.93
2019-03-13T13:49:40.756Z,2.63
2019-03-13T13:52:09.953Z,3.50
2019-03-13T13:54:39.206Z,3.90
2019-03-13T13:57:08.366Z,3.57
2019-03-13T13:59:38.098Z,3.90
2019-03-13T14:02:07.770Z,4.57
2019-03-13T14:04:37.018Z,4.13
2019-03-13T14:07:06.262Z,4.27
2019-03-13T14:09:35.428Z,4.10
2019-03-13T14:12:04.668Z,4.20
2019-03-13T14:14:33.972Z,4.30
2019-03-13T14:17:03.476Z,5.07
2019-03-13T14:19:32.719Z,4.60
2019-03-13T14:22:01.934Z,3.47
2019-03-13T14:24:31.220Z,3.13
2019-03-13T14:27:13.526Z,3.50
2019-03-13T14:29:31.372Z,3.50
2019-03-13T14:32:01.026Z,3.33
2019-03-13T14:34:30.402Z,3.47
2019-03-13T14:37:00.062Z,3.30
2019-03-13T14:39:29.328Z,3.10
2019-03-13T14:41:58.568Z,4.13
2019-03-13T14:44:27.732Z,3.53
2019-03-13T14:46:57.006Z,3.40
2019-03-13T14:49:26.303Z,3.40
2019-03-13T14:51:55.545Z,2.73
2019-03-13T14:54:24.704Z,3.00
2019-03-13T14:56:54.210Z,2.77
2019-03-13T14:59:23.733Z,2.80
2019-03-13T15:01:52.906Z,2.90
2019-03-13T15:04:22.122Z,2.43
2019-03-13T15:06:52.028Z,2.90
2019-03-13T15:09:21.244Z,2.60
2019-03-13T15:11:51.093Z,3.03
2019-03-13T15:14:20.333Z,3.87
2019-03-13T15:16:49.496Z,3.27
2019-03-13T15:19:19.056Z,2.87
2019-03-13T15:21:48.700Z,2.57
2019-03-13T15:24:18.046Z,2.23
2019-03-13T15:26:47.552Z,1.97
2019-03-13T15:29:16.866Z,2.13
2019-03-13T15:31:46.128Z,2.43
2019-03-13T15:34:15.387Z,2.53
2019-03-13T15:36:44.607Z,3.03
2019-03-13T15:39:14.185Z,3.10
2019-03-13T15:41:43.550Z,2.43
2019-03-13T15:44:12.830Z,3.47
2019-03-13T15:46:42.199Z,3.37
2019-03-13T15:49:11.729Z,2.80
2019-03-13T15:51:41.720Z,3.03
2019-03-13T15:54:10.987Z,3.33
2019-03-13T15:56:40.758Z,3.23
2019-03-13T15:59:09.978Z,3.63
2019-03-13T16:01:39.271Z,3.03
2019-03-13T16:04:08.639Z,3.00
2019-03-13T16:06:37.883Z,2.80
2019-03-13T16:09:08.665Z,3.13
2019-03-13T16:11:38.021Z,2.80
2019-03-13T16:14:07.367Z,2.77
2019-03-13T16:16:36.725Z,2.67
2019-03-13T16:19:06.084Z,3.27
2019-03-13T16:21:35.335Z,2.53
2019-03-13T16:24:05.012Z,3.50
2019-03-13T16:26:34.286Z,3.03
2019-03-13T16:29:04.001Z,3.00
2019-03-13T16:31:33.351Z,3.00
2019-03-13T16:34:02.572Z,3.13
2019-03-13T16:36:31.859Z,2.60
2019-03-13T16:39:01.168Z,3.57
2019-03-13T16:41:30.501Z,3.03
2019-03-13T16:44:00.287Z,3.27
2019-03-13T16:46:29.990Z,2.70
2019-03-13T16:48:59.717Z,2.93
2019-03-13T16:51:29.045Z,2.93
2019-03-13T16:53:59.083Z,2.93
2019-03-13T16:56:28.418Z,2.90
2019-03-13T16:58:57.651Z,3.23
2019-03-13T17:01:26.935Z,3.20
2019-03-13T17:03:56.179Z,2.70
2019-03-13T17:06:25.386Z,2.97
2019-03-13T17:08:55.258Z,3.00
2019-03-13T17:11:24.479Z,2.80
2019-03-13T17:13:53.653Z,2.80
2019-03-13T17:16:22.886Z,2.47
2019-03-13T17:18:52.047Z,2.77
2019-03-13T17:21:21.269Z,3.07
2019-03-13T17:23:50.545Z,3.10
2019-03-13T17:26:19.768Z,2.37
2019-03-13T17:28:50.323Z,2.83
2019-03-13T17:31:19.739Z,2.70
2019-03-13T17:33:49.789Z,2.37
2019-03-13T17:36:19.848Z,2.17
2019-03-13T17:38:49.049Z,2.67
2019-03-13T17:41:18.201Z,2.03
2019-03-13T17:43:47.399Z,2.13
2019-03-13T17:46:16.544Z,3.10
2019-03-13T17:48:45.704Z,3.43
2019-03-13T17:51:14.915Z,3.53
2019-03-13T17:53:44.251Z,3.93
2019-03-13T17:56:13.413Z,3.17
2019-03-13T17:58:42.658Z,2.70
2019-03-13T18:01:11.911Z,2.90
2019-03-13T18:03:41.131Z,3.43
2019-03-13T18:06:10.668Z,3.27
2019-03-13T18:08:39.803Z,3.40
2019-03-13T18:11:09.403Z,4.20
2019-03-13T18:13:38.835Z,4.47
2019-03-13T18:16:08.964Z,4.13
2019-03-13T18:18:38.203Z,3.57
2019-03-13T18:21:07.458Z,3.30
2019-03-13T18:23:36.724Z,3.20
2019-03-13T18:26:05.912Z,3.47
2019-03-13T18:28:35.078Z,3.17
2019-03-13T18:31:05.080Z,2.63
2019-03-13T18:33:34.274Z,3.33
2019-03-13T18:36:04.034Z,2.93
2019-03-13T18:38:33.296Z,3.17
2019-03-13T18:41:02.803Z,3.43
2019-03-13T18:43:32.024Z,3.30
2019-03-13T18:46:01.196Z,3.17
2019-03-13T18:48:30.429Z,3.30
2019-03-13T18:50:59.993Z,2.50
2019-03-13T18:53:29.171Z,2.73
2019-03-13T18:55:58.402Z,2.37
2019-03-13T18:58:27.630Z,2.90
2019-03-13T19:00:58.351Z,2.83
2019-03-13T19:03:27.716Z,3.23
2019-03-13T19:05:56.919Z,2.90
2019-03-13T19:08:27.227Z,2.70
2019-03-13T19:10:56.840Z,2.70
2019-03-13T19:13:26.089Z,2.83
2019-03-13T19:15:55.233Z,2.57
2019-03-13T19:18:24.403Z,2.80
2019-03-13T19:20:54.354Z,3.27
2019-03-13T19:23:23.838Z,2.83
2019-03-13T19:25:53.338Z,2.47
2019-03-13T19:28:22.486Z,2.67
2019-03-13T19:30:51.911Z,3.33
2019-03-13T19:33:21.079Z,2.90
2019-03-13T19:35:50.400Z,2.90
2019-03-13T19:38:19.947Z,3.20
2019-03-13T19:40:49.217Z,2.80
2019-03-13T19:43:18.414Z,3.17
2019-03-13T19:45:47.970Z,2.40
2019-03-13T19:48:17.195Z,2.57
2019-03-13T19:50:46.730Z,2.90
2019-03-13T19:53:16.289Z,2.50
2019-03-13T19:55:45.864Z,2.33
2019-03-13T19:58:15.204Z,3.20
2019-03-13T20:00:44.500Z,2.73
2019-03-13T20:03:13.777Z,3.10
2019-03-13T20:05:45.714Z,3.07
2019-03-13T20:08:14.302Z,3.03
2019-03-13T20:10:43.655Z,2.73
2019-03-13T20:13:12.818Z,3.13
2019-03-13T20:15:41.999Z,2.93
2019-03-13T20:18:11.477Z,3.03
2019-03-13T20:20:40.705Z,3.57
2019-03-13T20:23:10.057Z,4.33
2019-03-13T20:25:39.226Z,3.10
2019-03-13T20:28:08.389Z,3.33
2019-03-13T20:30:37.972Z,3.73
2019-03-13T20:33:07.290Z,3.63
2019-03-13T20:35:37.232Z,3.20
2019-03-13T20:38:06.636Z,3.13
2019-03-13T20:40:36.090Z,2.93
2019-03-13T20:43:05.559Z,2.70
2019-03-13T20:45:34.910Z,2.80
2019-03-13T20:48:04.561Z,2.87
2019-03-13T20:50:37.471Z,3.00
2019-03-13T20:53:04.633Z,3.17
2019-03-13T20:55:33.811Z,3.60
2019-03-13T20:58:06.331Z,3.53
2019-03-13T21:00:35.568Z,2.87
2019-03-13T21:03:05.227Z,3.13
2019-03-13T21:05:35.353Z,3.23
2019-03-13T21:08:04.587Z,3.57
2019-03-13T21:10:33.846Z,3.30
2019-03-13T21:13:03.402Z,4.47
2019-03-13T21:15:32.731Z,3.43
2019-03-13T21:18:01.933Z,3.40
2019-03-13T21:20:31.235Z,3.27
2019-03-13T21:23:00.553Z,4.10
2019-03-13T21:25:30.455Z,3.50
2019-03-13T21:27:59.978Z,3.53
2019-03-13T21:30:29.225Z,3.60
2019-03-13T21:32:58.414Z,3.13
2019-03-13T21:35:28.268Z,3.97
2019-03-13T21:37:57.601Z,4.53
2019-03-13T21:40:27.219Z,3.60
2019-03-13T21:42:56.846Z,4.00
2019-03-13T21:45:40.109Z,4.27
2019-03-13T21:47:57.607Z,4.83
2019-03-13T21:50:26.755Z,4.20
2019-03-13T21:52:56.291Z,4.47
2019-03-13T21:55:27.350Z,4.80
2019-03-13T21:57:56.496Z,4.80
2019-03-13T22:00:25.696Z,4.20
2019-03-13T22:02:55.327Z,4.67
2019-03-13T22:05:27.218Z,4.13
2019-03-13T22:08:01.747Z,4.23
2019-03-13T22:10:30.979Z,4.73
2019-03-13T22:13:00.237Z,4.30
2019-03-13T22:15:29.514Z,3.90
2019-03-13T22:17:58.840Z,5.33
2019-03-13T22:20:28.338Z,4.17
2019-03-13T22:22:57.829Z,4.17
2019-03-13T22:25:26.997Z,4.20
2019-03-13T22:27:56.253Z,4.00
2019-03-13T22:30:28.520Z,4.07
2019-03-13T22:32:56.719Z,3.63
2019-03-13T22:35:25.982Z,3.83
2019-03-13T22:37:55.151Z,3.87
2019-03-13T22:40:24.320Z,3.87
2019-03-13T22:42:54.187Z,4.63
2019-03-13T22:45:23.348Z,3.93
2019-03-13T22:47:52.994Z,3.73
2019-03-13T22:50:22.217Z,4.40
2019-03-13T22:52:51.387Z,3.47
2019-03-13T22:55:20.930Z,4.83
2019-03-13T22:57:50.184Z,3.37
2019-03-13T23:00:41.557Z,3.90
2019-03-13T23:03:11.242Z,3.57
2019-03-13T23:05:40.395Z,4.07
2019-03-13T23:08:10.169Z,3.33
2019-03-13T23:10:39.681Z,3.77
2019-03-13T23:13:08.871Z,3.67
2019-03-13T23:15:38.177Z,3.80
2019-03-13T23:18:07.782Z,4.20
2019-03-13T23:20:37.047Z,3.63
2019-03-13T23:23:06.213Z,3.83
2019-03-13T23:25:35.361Z,3.97
2019-03-13T23:28:04.548Z,4.13
2019-03-13T23:30:33.760Z,3.10
2019-03-13T23:33:02.943Z,3.03
2019-03-13T23:35:32.201Z,4.30
2019-03-13T23:38:01.460Z,3.53
2019-03-13T23:40:30.681Z,4.20
2019-03-13T23:43:00.249Z,4.17
2019-03-13T23:45:29.459Z,4.23
2019-03-13T23:47:58.726Z,4.00
2019-03-13T23:50:27.869Z,4.10
2019-03-13T23:52:57.490Z,3.33
2019-03-13T23:55:26.685Z,3.63
2019-03-13T23:57:56.253Z,4.43
